Time;durP1;ratioP1;P1;durP2;ratioP2;P2;SDS_P1;SDS_P2;PMS_P1;PMS_P2;Temp;Humidity;BMP_temperature;BMP_pressure;BME280_temperature;BME280_humidity;BME280_pressure;Samples;Min_cycle;Max_cycle;Signal;HPM_P1;HPM_P2
2022/08/19 00:12:54;;;;;;;11.80;7.97;;;;;;;25.11;54.22;99435.72;30869054;28;97431;-59
2022/08/19 00:27:55;;;;;;;10.65;8.27;;;;;;;25.06;54.45;99408.53;30867685;28;96856;-60
2022/08/19 00:42:55;;;;;;;11.03;7.87;;;;;;;25.00;55.20;99407.75;30864898;28;97049;-62
2022/08/19 00:58:00;;;;;;;9.65;7.63;;;;;;;24.77;55.40;99418.28;30863913;28;97115;-59
2022/08/19 01:13:03;;;;;;;12.33;7.40;;;;;;;24.59;56.22;99392.53;30862432;28;96700;-63
2022/08/19 01:28:03;;;;;;;9.40;7.67;;;;;;;24.39;56.83;99344.47;30861053;28;96663;-63
2022/08/19 01:43:05;;;;;;;9.38;7.65;;;;;;;24.19;56.95;99341.88;30859831;28;96869;-59
2022/08/19 01:58:10;;;;;;;9.67;7.57;;;;;;;23.81;57.61;99340.41;30858777;28;96965;-59
2022/08/19 02:13:13;;;;;;;11.47;7.27;;;;;;;23.49;58.47;99349.75;30856486;28;96826;-58
2022/08/19 02:28:13;;;;;;;13.03;8.00;;;;;;;23.24;58.71;99320.75;30855745;28;96683;-57
2022/08/19 02:43:13;;;;;;;;;;;;;;;22.65;59.72;99316.75;30852487;28;98308;-61
2022/08/19 02:58:14;;;;;;;11.17;8.47;;;;;;;22.07;61.27;99311.47;30854869;28;97041;-60
2022/08/19 03:13:17;;;;;;;11.65;8.38;;;;;;;21.71;62.40;99330.38;30856621;28;97033;-60
2022/08/19 03:28:18;;;;;;;10.87;9.10;;;;;;;21.41;63.53;99353.50;30871866;28;96625;-57
2022/08/19 03:43:18;;;;;;;14.47;9.50;;;;;;;21.21;64.62;99351.47;30870532;28;97515;-58
2022/08/19 03:58:20;;;;;;;12.73;9.70;;;;;;;21.12;65.40;99364.69;30866764;28;96664;-59
2022/08/19 04:13:21;;;;;;;15.27;11.37;;;;;;;21.09;65.81;99367.91;30867959;28;97327;-58
2022/08/19 04:28:22;;;;;;;13.17;10.37;;;;;;;21.26;66.23;99390.22;30863400;28;97507;-58
2022/08/19 04:43:22;;;;;;;14.20;10.47;;;;;;;21.51;66.49;99369.78;30870169;28;98807;-58
2022/08/19 04:58:24;;;;;;;13.50;10.63;;;;;;;21.82;66.35;99367.25;30976038;28;97421;-57
2022/08/19 05:13:26;;;;;;;15.47;11.27;;;;;;;22.15;66.20;99376.06;30942882;28;98739;-60
2022/08/19 05:28:27;;;;;;;15.97;11.00;;;;;;;22.59;65.99;99367.47;30936096;28;99129;-58
2022/08/19 05:43:27;;;;;;;17.15;11.13;;;;;;;22.96;65.42;99385.44;30946396;28;98886;-61
2022/08/19 05:58:28;;;;;;;14.32;11.77;;;;;;;23.30;64.85;99365.03;30949646;28;97404;-59
2022/08/19 06:13:28;;;;;;;;;;;;;;;23.63;64.37;99412.53;30944912;28;107934;-61
2022/08/19 06:28:28;;;;;;;13.63;11.63;;;;;;;24.03;63.28;99436.34;30947504;28;97937;-61
2022/08/19 06:43:28;;;;;;;12.20;10.50;;;;;;;24.55;61.91;99472.31;30958685;28;98799;-59
2022/08/19 06:58:32;;;;;;;14.52;11.55;;;;;;;25.60;60.46;99494.75;30939105;28;97804;-61
2022/08/19 07:13:36;;;;;;;15.20;9.67;;;;;;;26.29;57.68;99497.31;30939846;28;97926;-60
2022/08/19 07:28:39;;;;;;;12.83;9.53;;;;;;;27.07;56.08;99529.06;30928650;28;99061;-60
2022/08/19 07:43:40;;;;;;;14.57;8.90;;;;;;;28.49;52.75;99528.78;30938082;28;99002;-61
2022/08/19 07:58:43;;;;;;;11.35;7.63;;;;;;;29.53;47.89;99522.59;30952146;28;98307;-62
2022/08/19 08:13:43;;;;;;;10.10;6.50;;;;;;;31.52;43.84;99541.81;30987165;28;96716;-60
2022/08/19 08:28:44;;;;;;;9.13;5.97;;;;;;;32.16;40.15;99542.16;30985042;28;97426;-65
2022/08/19 08:43:47;;;;;;;11.80;6.63;;;;;;;33.81;36.80;99530.19;30985631;28;98686;-61
2022/08/19 08:59:09;;;;;;;10.90;7.20;;;;;;;34.25;35.92;99531.22;30984479;28;96739;-62
2022/08/19 09:14:28;;;;;;;9.87;5.83;;;;;;;36.03;32.76;99507.44;30983664;28;96834;-61
2022/08/19 09:29:29;;;;;;;8.23;5.67;;;;;;;43.09;23.23;99528.75;30985018;28;97728;-62
2022/08/19 09:44:29;;;;;;;9.30;5.67;;;;;;;42.89;22.07;99526.41;30980564;28;98360;-61
2022/08/19 09:59:30;;;;;;;8.18;5.30;;;;;;;41.66;22.90;99522.97;30927673;28;97490;-62
2022/08/19 10:14:31;;;;;;;7.30;5.53;;;;;;;40.84;23.56;99534.72;30855211;28;97329;-61
2022/08/19 10:29:34;;;;;;;8.32;4.43;;;;;;;40.33;23.38;99523.25;30851164;28;96711;-60
2022/08/19 10:44:35;;;;;;;;;;;;;;;39.87;24.34;99506.97;30850431;28;97018;-59
2022/08/19 10:59:35;;;;;;;12.67;5.70;;;;;;;40.56;24.19;99513.81;30853949;28;96684;-63
2022/08/19 11:14:37;;;;;;;5.60;3.50;;;;;;;40.44;23.15;99507.38;30852221;28;97429;-60
2022/08/19 11:29:38;;;;;;;6.30;4.20;;;;;;;39.62;24.24;99515.13;30848720;28;96703;-60
2022/08/19 11:44:38;;;;;;;7.30;3.43;;;;;;;37.15;25.68;99528.50;30866997;28;96862;-61
2022/08/19 11:59:39;;;;;;;9.65;3.85;;;;;;;36.45;26.77;99519.91;30866652;28;96672;-60
2022/08/19 12:14:39;;;;;;;6.05;2.70;;;;;;;36.81;25.31;99506.03;30865640;28;104915;-59
2022/08/19 12:29:39;;;;;;;6.50;3.00;;;;;;;36.76;25.57;99507.09;30863477;28;104078;-60
2022/08/19 12:44:41;;;;;;;9.48;3.22;;;;;;;37.67;26.08;99504.88;30882719;28;96673;-59
2022/08/19 12:59:42;;;;;;;8.17;3.37;;;;;;;38.43;25.05;99506.91;30985656;28;97426;-60
2022/08/19 13:14:45;;;;;;;8.45;2.78;;;;;;;37.39;24.63;99494.09;30965730;28;97602;-60
2022/08/19 13:45:06;;;;;;;7.30;3.40;;;;;;;35.67;26.61;99495.41;30972892;28;97233;-60
2022/08/19 14:00:10;;;;;;;5.70;2.73;;;;;;;35.17;27.72;99505.13;30983851;28;97039;-59
2022/08/19 14:15:12;;;;;;;10.00;3.70;;;;;;;34.30;29.49;99499.84;30975973;28;96704;-59
2022/08/19 14:30:18;;;;;;;6.07;3.20;;;;;;;33.16;30.88;99492.81;30975608;28;97142;-60
2022/08/19 14:45:19;;;;;;;10.43;2.80;;;;;;;32.69;32.22;99482.00;30971773;28;97363;-58
2022/08/19 15:00:19;;;;;;;6.95;3.58;;;;;;;32.98;32.82;99477.56;30970464;28;97405;-58
2022/08/19 15:15:21;;;;;;;8.95;3.80;;;;;;;32.59;34.34;99480.47;30985436;28;97274;-59
2022/08/19 15:30:25;;;;;;;8.60;6.10;;;;;;;32.78;35.32;99493.81;30988440;28;97733;-58
2022/08/19 15:45:31;;;;;;;12.80;7.30;;;;;;;32.35;37.89;99501.19;30938640;28;97565;-62
2022/08/19 16:15:52;;;;;;;12.87;11.03;;;;;;;30.96;41.41;99505.94;30982508;28;97018;-58
2022/08/19 16:30:53;;;;;;;13.87;11.83;;;;;;;30.86;43.86;99487.78;30971507;28;97202;-58
2022/08/19 16:45:54;;;;;;;14.23;11.27;;;;;;;30.40;45.38;99524.94;30973799;28;96948;-60
2022/08/19 17:00:56;;;;;;;12.93;11.23;;;;;;;30.41;45.35;99511.97;30970576;28;97292;-59
2022/08/19 17:15:58;;;;;;;15.37;11.53;;;;;;;30.39;45.18;99542.53;30955712;28;97617;-59
2022/08/19 17:30:58;;;;;;;14.40;10.90;;;;;;;30.14;44.95;99550.38;30959200;28;97261;-58
2022/08/19 17:46:01;;;;;;;13.40;10.15;;;;;;;29.83;45.65;99580.56;30959147;28;97266;-59
2022/08/19 18:01:02;;;;;;;16.03;11.00;;;;;;;29.61;46.01;99606.88;30969836;28;97504;-60
2022/08/19 18:16:11;;;;;;;12.63;10.70;;;;;;;29.37;45.79;99599.78;30963605;28;97504;-57
2022/08/19 18:31:11;;;;;;;13.93;11.03;;;;;;;28.85;47.62;99626.69;30969106;28;98624;-59
2022/08/19 19:01:35;;;;;;;18.23;14.33;;;;;;;27.36;50.83;99658.22;30964711;28;96919;-58
2022/08/19 19:16:38;;;;;;;19.27;14.00;;;;;;;26.43;54.26;99718.59;30963430;28;97390;-58
2022/08/19 19:31:38;;;;;;;25.50;13.57;;;;;;;25.85;57.26;99692.03;30962625;28;96875;-57
2022/08/19 19:46:41;;;;;;;23.20;14.57;;;;;;;25.95;58.02;99700.13;30962024;28;97071;-57
2022/08/19 20:01:44;;;;;;;13.40;7.53;;;;;;;24.99;60.32;99766.59;30974877;28;97377;-64
2022/08/19 20:16:47;;;;;;;11.77;7.57;;;;;;;24.07;63.03;99755.72;30981445;28;97461;-58
2022/08/19 20:31:48;;;;;;;12.97;6.90;;;;;;;23.64;64.53;99724.09;30980352;28;96836;-58
2022/08/19 20:46:48;;;;;;;;;;;;;;;23.61;65.57;99708.31;30979749;28;97441;-58
2022/08/19 21:01:50;;;;;;;;;;;;;;;23.58;65.97;99716.19;30978834;28;97214;-57
2022/08/19 21:16:50;;;;;;;10.37;7.47;;;;;;;23.27;66.61;99738.66;30976273;28;96708;-59
2022/08/19 21:31:51;;;;;;;11.25;6.93;;;;;;;23.12;67.68;99705.97;30918892;28;102069;-60
2022/08/19 21:46:51;;;;;;;9.93;6.40;;;;;;;23.12;67.40;99692.38;30858763;28;96815;-65
2022/08/19 22:01:51;;;;;;;10.90;5.57;;;;;;;22.98;67.41;99675.75;30859093;28;108123;-57
2022/08/19 22:16:52;;;;;;;19.88;6.78;;;;;;;22.89;67.86;99659.13;30856619;28;97414;-57
2022/08/19 22:31:52;;;;;;;11.85;6.60;;;;;;;22.71;67.90;99656.91;30856609;28;104429;-57
2022/08/19 22:46:53;;;;;;;11.90;6.77;;;;;;;22.53;68.71;99664.41;30856198;28;96879;-57
2022/08/19 23:01:54;;;;;;;12.63;6.27;;;;;;;22.40;68.87;99673.00;30855476;28;97573;-67
2022/08/19 23:16:54;;;;;;;13.05;7.30;;;;;;;22.10;69.77;99668.94;30853954;28;97240;-58
2022/08/19 23:31:54;;;;;;;14.03;7.60;;;;;;;22.13;70.64;99655.69;30860302;28;97606;-57
2022/08/19 23:46:55;;;;;;;13.90;7.40;;;;;;;22.65;70.50;99665.00;30872637;28;96793;-58
